createdAt,value
2023-03-06T00:00:55.188Z,4.07
2023-03-06T00:03:23.343Z,3.97
2023-03-06T00:05:50.730Z,4.13
2023-03-06T00:08:17.948Z,4.97
2023-03-06T00:10:45.982Z,4.40
2023-03-06T00:13:18.853Z,4.18
2023-03-06T00:15:47.371Z,4.43
2023-03-06T00:18:14.759Z,3.50
2023-03-06T00:20:43.682Z,3.75
2023-03-06T00:23:12.108Z,4.05
2023-03-06T00:25:42.900Z,4.57
2023-03-06T00:28:12.221Z,5.87
2023-03-06T00:30:39.649Z,6.03
2023-03-06T00:33:07.032Z,4.72
2023-03-06T00:35:34.292Z,5.00
2023-03-06T00:38:01.675Z,4.50
2023-03-06T00:40:28.859Z,4.30
2023-03-06T00:42:56.062Z,4.67
2023-03-06T00:45:23.312Z,4.47
2023-03-06T00:47:50.616Z,6.07
2023-03-06T00:50:17.851Z,7.28
2023-03-06T00:52:45.006Z,9.33
2023-03-06T00:55:12.510Z,7.38
2023-03-06T00:57:39.740Z,5.90
2023-03-06T01:00:08.339Z,6.53
2023-03-06T01:02:35.573Z,6.25
2023-03-06T01:05:02.818Z,6.60
2023-03-06T01:07:34.010Z,5.13
2023-03-06T01:10:01.172Z,3.95
2023-03-06T01:12:28.361Z,3.88
2023-03-06T01:14:55.593Z,4.05
2023-03-06T01:17:22.713Z,4.33
2023-03-06T01:19:49.998Z,4.37
2023-03-06T01:22:17.163Z,4.43
2023-03-06T01:24:44.403Z,4.95
2023-03-06T01:27:11.598Z,3.63
2023-03-06T01:29:38.762Z,4.33
2023-03-06T01:32:06.147Z,3.47
2023-03-06T01:34:33.355Z,3.60
2023-03-06T01:37:00.742Z,3.10
2023-03-06T01:39:28.743Z,3.80
2023-03-06T01:41:55.899Z,3.10
2023-03-06T01:44:23.136Z,3.33
2023-03-06T01:46:50.346Z,3.53
2023-03-06T01:49:35.108Z,3.95
2023-03-06T01:52:09.650Z,4.22
2023-03-06T01:54:46.450Z,3.80
2023-03-06T01:57:20.541Z,4.55
2023-03-06T01:59:53.014Z,5.30
2023-03-06T02:02:20.979Z,5.55
2023-03-06T02:04:48.583Z,6.05
2023-03-06T02:07:18.580Z,6.77
2023-03-06T02:09:45.887Z,5.38
2023-03-06T02:12:16.795Z,5.13
2023-03-06T02:14:44.320Z,5.55
2023-03-06T02:17:14.157Z,5.30
2023-03-06T02:19:50.249Z,5.80
2023-03-06T02:22:19.752Z,5.63
2023-03-06T02:24:56.699Z,5.32
2023-03-06T02:27:25.658Z,5.57
2023-03-06T02:29:55.365Z,5.72
2023-03-06T02:32:22.549Z,5.97
2023-03-06T02:34:55.580Z,5.90
2023-03-06T02:37:24.890Z,5.93
2023-03-06T02:40:00.323Z,6.07
2023-03-06T02:42:48.790Z,5.85
2023-03-06T02:45:23.033Z,6.40
2023-03-06T02:47:50.207Z,6.30
2023-03-06T02:50:17.601Z,7.30
2023-03-06T02:52:44.740Z,7.30
2023-03-06T02:55:11.935Z,7.22
2023-03-06T02:57:39.167Z,8.03
2023-03-06T03:00:07.152Z,6.15
2023-03-06T03:02:34.812Z,7.03
2023-03-06T03:05:02.221Z,7.38
2023-03-06T03:07:30.563Z,6.55
2023-03-06T03:09:58.433Z,5.93
2023-03-06T03:12:25.735Z,4.75
2023-03-06T03:14:52.970Z,4.13
2023-03-06T03:17:20.203Z,4.20
2023-03-06T03:19:47.343Z,5.07
2023-03-06T03:22:14.851Z,4.20
2023-03-06T03:24:42.521Z,4.20
2023-03-06T03:27:10.764Z,4.03
2023-03-06T03:29:38.143Z,4.22
2023-03-06T03:32:06.191Z,4.28
2023-03-06T03:34:33.570Z,4.53
2023-03-06T03:37:00.857Z,4.43
2023-03-06T03:39:28.041Z,4.20
2023-03-06T03:41:55.211Z,4.63
2023-03-06T03:44:22.867Z,4.13
2023-03-06T03:46:50.678Z,4.50
2023-03-06T03:49:21.600Z,3.78
2023-03-06T03:51:48.951Z,4.05
2023-03-06T03:54:16.234Z,4.63
2023-03-06T03:56:46.677Z,4.03
2023-03-06T03:59:19.771Z,4.27
2023-03-06T04:02:07.243Z,4.40
2023-03-06T04:04:40.915Z,4.63
2023-03-06T04:07:08.631Z,4.22
2023-03-06T04:09:36.686Z,3.60
2023-03-06T04:12:05.178Z,3.83
2023-03-06T04:14:34.300Z,4.20
2023-03-06T04:17:01.677Z,3.67
2023-03-06T04:19:28.866Z,3.65
2023-03-06T04:21:56.078Z,3.80
2023-03-06T04:24:23.818Z,4.40
2023-03-06T04:26:51.338Z,4.00
2023-03-06T04:29:18.470Z,3.78
2023-03-06T04:31:46.255Z,3.45
2023-03-06T04:34:13.935Z,4.15
2023-03-06T04:36:45.176Z,4.00
2023-03-06T04:39:14.404Z,4.32
2023-03-06T04:41:42.445Z,3.78
2023-03-06T04:44:09.872Z,4.25
2023-03-06T04:46:37.157Z,3.60
2023-03-06T04:49:04.393Z,4.53
2023-03-06T04:51:31.607Z,4.32
2023-03-06T04:53:59.505Z,4.60
2023-03-06T04:56:26.655Z,4.50
2023-03-06T04:58:53.847Z,5.85
2023-03-06T05:01:21.115Z,5.60
2023-03-06T05:03:49.754Z,6.07
2023-03-06T05:06:16.865Z,6.40
2023-03-06T05:08:44.044Z,6.18
2023-03-06T05:11:11.370Z,6.55
2023-03-06T05:13:38.597Z,7.57
2023-03-06T05:16:06.851Z,6.95
2023-03-06T05:18:35.081Z,6.60
2023-03-06T05:21:03.047Z,6.57
2023-03-06T05:23:31.676Z,6.95
2023-03-06T05:25:59.609Z,7.70
2023-03-06T05:28:26.870Z,7.10
2023-03-06T05:30:53.996Z,5.90
2023-03-06T05:33:21.168Z,6.30
2023-03-06T05:35:49.030Z,6.85
2023-03-06T05:38:16.961Z,6.90
2023-03-06T05:40:44.968Z,6.23
2023-03-06T05:43:12.839Z,5.85
2023-03-06T05:45:40.750Z,6.90
2023-03-06T05:48:08.628Z,7.05
2023-03-06T05:50:35.839Z,7.20
2023-03-06T05:53:03.867Z,7.65
2023-03-06T05:55:31.006Z,8.10
2023-03-06T05:57:58.256Z,7.90
2023-03-06T06:00:25.595Z,8.05
2023-03-06T06:02:52.778Z,5.93
2023-03-06T06:05:19.955Z,8.30
2023-03-06T06:07:47.124Z,7.63
2023-03-06T06:10:14.358Z,7.18
2023-03-06T06:12:41.636Z,8.70
2023-03-06T06:15:09.177Z,6.57
2023-03-06T06:17:36.371Z,8.45
2023-03-06T06:20:04.207Z,5.93
2023-03-06T06:22:31.542Z,6.47
2023-03-06T06:24:58.679Z,5.70
2023-03-06T06:27:25.810Z,11.53
2023-03-06T06:29:53.001Z,14.63
2023-03-06T06:32:20.409Z,9.52
2023-03-06T06:34:47.582Z,6.90
2023-03-06T06:37:14.762Z,5.63
2023-03-06T06:39:42.162Z,6.70
2023-03-06T06:42:29.901Z,7.67
2023-03-06T06:44:57.422Z,7.40
2023-03-06T06:47:25.796Z,6.50
2023-03-06T06:49:55.081Z,7.50
2023-03-06T06:52:24.060Z,13.00
2023-03-06T06:54:52.180Z,8.90
2023-03-06T06:57:19.383Z,7.22
2023-03-06T06:59:46.592Z,6.18
2023-03-06T07:02:15.976Z,6.75
2023-03-06T07:04:56.537Z,7.87
2023-03-06T07:07:30.066Z,7.25
2023-03-06T07:09:57.230Z,6.35
2023-03-06T07:12:24.476Z,7.40
2023-03-06T07:14:51.722Z,8.43
2023-03-06T07:17:21.246Z,10.10
2023-03-06T07:19:48.590Z,12.65
2023-03-06T07:22:16.832Z,13.88
2023-03-06T07:24:43.993Z,9.05
2023-03-06T07:27:11.430Z,6.72
2023-03-06T07:29:38.615Z,7.30
2023-03-06T07:32:06.141Z,10.67
2023-03-06T07:34:36.576Z,11.35
2023-03-06T07:37:03.867Z,7.30
2023-03-06T07:39:31.054Z,9.60
2023-03-06T07:41:58.757Z,6.33
2023-03-06T07:44:26.425Z,6.83
2023-03-06T07:46:53.830Z,7.35
2023-03-06T07:49:21.208Z,7.13
2023-03-06T07:51:48.391Z,6.80
2023-03-06T07:54:15.524Z,6.93
2023-03-06T07:56:42.741Z,6.33
2023-03-06T07:59:11.637Z,7.30
2023-03-06T08:01:40.285Z,6.70
2023-03-06T08:04:07.733Z,7.13
2023-03-06T08:06:35.063Z,6.43
2023-03-06T08:09:03.001Z,6.37
2023-03-06T08:11:30.797Z,6.78
2023-03-06T08:13:58.517Z,7.13
2023-03-06T08:16:28.860Z,6.75
2023-03-06T08:18:57.049Z,6.13
2023-03-06T08:21:26.404Z,7.00
2023-03-06T08:23:53.955Z,7.57
2023-03-06T08:26:24.160Z,7.60
2023-03-06T08:28:53.042Z,7.28
2023-03-06T08:31:43.192Z,6.50
2023-03-06T08:34:13.339Z,6.50
2023-03-06T08:36:40.514Z,7.75
2023-03-06T08:39:08.354Z,7.30
2023-03-06T08:41:36.883Z,6.80
2023-03-06T08:44:04.618Z,7.38
2023-03-06T08:46:32.878Z,7.70
2023-03-06T08:49:00.278Z,7.05
2023-03-06T08:51:28.936Z,7.85
2023-03-06T08:53:57.873Z,6.78
2023-03-06T08:56:27.615Z,7.55
2023-03-06T08:58:56.704Z,6.83
2023-03-06T09:01:26.743Z,8.27
2023-03-06T09:03:56.664Z,7.13
2023-03-06T09:06:27.210Z,7.90
2023-03-06T09:08:56.617Z,7.40
2023-03-06T09:11:27.693Z,7.63
2023-03-06T09:13:56.412Z,7.25
2023-03-06T09:16:24.225Z,7.60
2023-03-06T09:18:53.325Z,7.10
2023-03-06T09:21:23.424Z,7.77
2023-03-06T09:23:52.416Z,7.37
2023-03-06T09:26:32.835Z,6.55
2023-03-06T09:29:08.322Z,6.82
2023-03-06T09:31:38.139Z,6.25
2023-03-06T09:34:05.684Z,6.65
2023-03-06T09:36:42.772Z,6.77
2023-03-06T09:39:18.124Z,7.15
2023-03-06T09:41:50.111Z,5.53
2023-03-06T09:44:24.635Z,5.53
2023-03-06T09:47:10.869Z,6.43
2023-03-06T09:54:14.040Z,6.22
2023-03-06T09:56:48.824Z,6.28
2023-03-06T09:59:25.385Z,6.45
2023-03-06T10:02:01.471Z,6.20
2023-03-06T10:04:36.205Z,6.10
2023-03-06T10:07:19.172Z,5.65
2023-03-06T10:09:57.950Z,5.70
2023-03-06T10:12:38.220Z,4.90
2023-03-06T10:15:18.037Z,5.40
2023-03-06T10:17:46.398Z,5.50
2023-03-06T10:20:17.448Z,5.00
2023-03-06T10:23:01.149Z,4.63
2023-03-06T10:25:43.871Z,4.30
2023-03-06T10:28:28.770Z,5.07
2023-03-06T10:31:01.798Z,4.67
2023-03-06T10:33:43.613Z,4.57
2023-03-06T10:36:15.824Z,4.47
2023-03-06T10:38:44.594Z,4.50
2023-03-06T10:41:11.736Z,4.50
2023-03-06T10:43:44.127Z,4.77
2023-03-06T10:46:26.379Z,4.68
2023-03-06T10:48:59.226Z,4.38
2023-03-06T10:51:27.476Z,4.68
2023-03-06T10:54:18.464Z,4.43
2023-03-06T10:56:47.241Z,5.10
2023-03-06T10:59:17.740Z,4.70
2023-03-06T11:01:48.191Z,4.55
2023-03-06T11:04:32.203Z,4.35
2023-03-06T11:07:14.895Z,4.15
2023-03-06T11:09:57.302Z,4.97
2023-03-06T11:12:42.611Z,4.75
2023-03-06T11:15:17.877Z,4.53
2023-03-06T11:17:48.255Z,4.75
2023-03-06T11:20:18.564Z,4.47
2023-03-06T11:22:50.816Z,5.30
2023-03-06T11:25:20.736Z,4.78
2023-03-06T11:27:56.781Z,4.38
2023-03-06T11:30:30.355Z,5.68
2023-03-06T11:33:05.945Z,4.85
2023-03-06T11:36:00.672Z,5.03
2023-03-06T11:38:42.922Z,5.20
2023-03-06T11:41:20.465Z,5.40
2023-03-06T11:44:00.726Z,4.60
2023-03-06T11:46:32.668Z,4.60
2023-03-06T11:49:16.990Z,4.83
2023-03-06T11:51:55.087Z,5.50
2023-03-06T11:54:23.063Z,4.53
2023-03-06T11:57:17.993Z,4.60
2023-03-06T12:00:07.608Z,5.03
2023-03-06T12:02:35.846Z,5.47
2023-03-06T12:05:35.039Z,5.72
2023-03-06T12:08:36.767Z,5.82
2023-03-06T12:11:33.233Z,5.63
2023-03-06T12:14:02.393Z,5.57
2023-03-06T12:17:15.482Z,5.13
2023-03-06T12:20:00.694Z,5.78
2023-03-06T12:22:31.333Z,5.03
2023-03-06T12:25:20.333Z,4.97
2023-03-06T12:28:10.705Z,5.10
2023-03-06T12:31:10.241Z,5.50
2023-03-06T12:34:00.094Z,5.65
2023-03-06T12:36:35.409Z,5.10
2023-03-06T12:39:14.541Z,5.95
2023-03-06T12:42:22.596Z,6.28
2023-03-06T12:45:24.811Z,6.30
2023-03-06T12:47:56.678Z,5.90
2023-03-06T12:50:30.010Z,5.57
2023-03-06T12:53:06.551Z,4.75
2023-03-06T12:55:46.489Z,4.97
2023-03-06T12:58:29.191Z,5.27
2023-03-06T13:01:34.142Z,5.75
2023-03-06T13:04:26.271Z,5.95
2023-03-06T13:07:02.240Z,5.63
2023-03-06T13:09:47.844Z,5.10
2023-03-06T13:12:57.680Z,6.10
2023-03-06T13:15:39.084Z,5.07
2023-03-06T13:18:21.688Z,5.05
2023-03-06T13:20:50.895Z,4.32
2023-03-06T13:23:33.218Z,4.93
2023-03-06T13:26:03.397Z,4.40
2023-03-06T13:28:54.068Z,4.40
2023-03-06T13:31:36.672Z,5.25
2023-03-06T13:34:23.576Z,4.40
2023-03-06T13:36:50.800Z,4.82
2023-03-06T13:39:18.016Z,5.07
2023-03-06T13:41:58.629Z,5.40
2023-03-06T13:44:25.816Z,4.57
2023-03-06T13:46:59.671Z,5.05
2023-03-06T13:49:27.744Z,5.22
2023-03-06T13:51:55.221Z,5.03
2023-03-06T13:54:35.895Z,4.68
2023-03-06T13:57:12.101Z,4.75
2023-03-06T14:00:03.107Z,4.93
2023-03-06T14:03:03.628Z,4.60
2023-03-06T14:05:50.799Z,4.40
2023-03-06T14:08:28.396Z,5.03
2023-03-06T14:11:14.010Z,4.35
2023-03-06T14:13:50.682Z,5.78
2023-03-06T14:16:24.117Z,6.50
2023-03-06T14:18:53.400Z,6.30
2023-03-06T14:21:33.440Z,6.60
2023-03-06T14:24:03.655Z,6.40
2023-03-06T14:26:41.360Z,6.68
2023-03-06T14:29:27.112Z,6.53
2023-03-06T14:31:59.535Z,6.97
2023-03-06T14:34:34.915Z,6.38
2023-03-06T14:37:05.627Z,7.70
2023-03-06T14:39:44.077Z,6.97
2023-03-06T14:42:21.113Z,7.43
2023-03-06T14:44:59.607Z,7.53
2023-03-06T14:47:29.876Z,7.93
2023-03-06T14:50:25.218Z,8.07
2023-03-06T14:52:57.716Z,7.90
2023-03-06T14:55:27.994Z,7.78
2023-03-06T14:58:23.759Z,6.97
2023-03-06T15:00:54.673Z,6.70
2023-03-06T15:03:33.806Z,6.70
2023-03-06T15:06:01.683Z,6.60
2023-03-06T15:08:34.511Z,7.65
2023-03-06T15:11:06.505Z,8.03
2023-03-06T15:13:34.783Z,8.63
2023-03-06T15:16:30.149Z,8.73
2023-03-06T15:19:02.624Z,10.88
2023-03-06T15:21:36.523Z,10.25
2023-03-06T15:24:30.535Z,10.33
2023-03-06T15:27:01.815Z,10.77
2023-03-06T15:29:29.181Z,8.85
2023-03-06T15:32:16.382Z,11.77
2023-03-06T15:34:43.715Z,10.98
2023-03-06T15:37:26.915Z,11.43
2023-03-06T15:40:19.400Z,10.48
2023-03-06T15:42:47.220Z,10.30
2023-03-06T15:45:18.871Z,12.15
2023-03-06T15:47:48.193Z,10.50
2023-03-06T15:50:18.199Z,10.93
2023-03-06T15:52:46.676Z,12.38
2023-03-06T15:55:16.746Z,11.07
2023-03-06T15:57:50.460Z,12.55
2023-03-06T16:00:29.541Z,12.52
2023-03-06T16:02:57.719Z,13.77
2023-03-06T16:05:25.776Z,10.88
2023-03-06T16:07:56.650Z,10.93
2023-03-06T16:10:27.114Z,12.00
2023-03-06T16:12:59.417Z,11.32
2023-03-06T16:15:30.675Z,13.63
2023-03-06T16:17:59.835Z,12.63
2023-03-06T16:20:28.906Z,12.30
2023-03-06T16:22:56.514Z,14.65
2023-03-06T16:25:26.112Z,14.55
2023-03-06T16:28:04.794Z,15.00
2023-03-06T16:30:33.768Z,14.82
2023-03-06T16:33:01.796Z,13.35
2023-03-06T16:35:29.064Z,12.38
2023-03-06T16:37:56.467Z,12.45
2023-03-06T16:40:24.983Z,13.17
2023-03-06T16:42:54.067Z,13.00
2023-03-06T16:45:23.380Z,13.10
2023-03-06T16:47:50.841Z,13.43
2023-03-06T16:50:22.665Z,13.95
2023-03-06T16:52:50.476Z,14.70
2023-03-06T16:55:17.758Z,15.40
2023-03-06T16:57:45.399Z,17.00
2023-03-06T17:00:15.752Z,16.20
2023-03-06T17:02:43.472Z,19.77
2023-03-06T17:05:12.002Z,18.13
2023-03-06T17:07:40.002Z,17.92
2023-03-06T17:10:11.054Z,17.83
2023-03-06T17:12:38.417Z,16.48
2023-03-06T17:15:07.080Z,16.00
2023-03-06T17:17:34.710Z,17.07
2023-03-06T17:20:02.175Z,19.73
2023-03-06T17:22:33.144Z,13.30
2023-03-06T17:25:06.748Z,11.25
2023-03-06T17:27:34.833Z,10.60
2023-03-06T17:30:02.260Z,12.43
2023-03-06T17:32:29.547Z,11.32
2023-03-06T17:34:56.759Z,11.60
2023-03-06T17:37:24.195Z,11.88
2023-03-06T17:39:51.402Z,10.70
2023-03-06T17:42:18.591Z,10.70
2023-03-06T17:44:45.738Z,11.30
2023-03-06T17:47:12.968Z,9.82
2023-03-06T17:49:40.208Z,10.15
2023-03-06T17:52:07.912Z,10.55
2023-03-06T17:54:35.895Z,10.37
2023-03-06T17:57:05.347Z,11.23
2023-03-06T17:59:36.279Z,11.88
2023-03-06T18:02:03.653Z,10.60
2023-03-06T18:04:30.878Z,17.00
2023-03-06T18:06:58.348Z,13.47
2023-03-06T18:09:25.652Z,15.70
2023-03-06T18:11:52.813Z,12.98
2023-03-06T18:14:19.991Z,9.82
2023-03-06T18:16:47.240Z,10.00
2023-03-06T18:19:15.692Z,9.93
2023-03-06T18:21:42.898Z,10.68
2023-03-06T18:24:12.739Z,12.10
2023-03-06T18:26:44.226Z,12.38
2023-03-06T18:29:11.986Z,12.60
2023-03-06T18:31:41.417Z,13.70
2023-03-06T18:34:12.343Z,14.00
2023-03-06T18:36:42.452Z,13.15
2023-03-06T18:39:12.036Z,14.05
2023-03-06T18:41:39.210Z,12.77
2023-03-06T18:44:06.469Z,11.33
2023-03-06T18:46:37.223Z,8.98
2023-03-06T18:49:05.216Z,8.70
2023-03-06T18:51:32.797Z,7.95
2023-03-06T18:54:01.490Z,7.60
2023-03-06T18:56:28.791Z,6.93
2023-03-06T18:58:56.033Z,7.60
2023-03-06T19:01:23.312Z,6.75
2023-03-06T19:03:50.709Z,6.70
2023-03-06T19:06:18.504Z,5.72
2023-03-06T19:08:45.703Z,6.03
2023-03-06T19:11:15.202Z,4.38
2023-03-06T19:13:43.404Z,4.28
2023-03-06T19:16:22.092Z,4.63
2023-03-06T19:18:49.588Z,4.90
2023-03-06T19:21:21.902Z,4.30
2023-03-06T19:23:49.171Z,3.70
2023-03-06T19:26:18.675Z,3.92
2023-03-06T19:28:46.587Z,3.60
2023-03-06T19:31:20.863Z,4.18
2023-03-06T19:33:49.264Z,4.90
2023-03-06T19:36:18.186Z,4.93
2023-03-06T19:38:50.345Z,5.28
2023-03-06T19:41:17.838Z,4.95
2023-03-06T19:43:44.995Z,5.78
2023-03-06T19:46:13.872Z,5.27
2023-03-06T19:48:41.824Z,5.70
2023-03-06T19:51:09.335Z,4.88
2023-03-06T19:53:37.099Z,6.05
2023-03-06T19:56:15.717Z,4.20
2023-03-06T19:58:43.133Z,4.67
2023-03-06T20:01:12.750Z,5.32
2023-03-06T20:03:40.468Z,5.38
2023-03-06T20:06:13.457Z,5.45
2023-03-06T20:08:41.179Z,6.05
2023-03-06T20:11:23.049Z,6.80
2023-03-06T20:13:51.052Z,6.93
2023-03-06T20:16:19.175Z,13.77
2023-03-06T20:18:46.842Z,11.63
2023-03-06T20:21:14.864Z,11.13
2023-03-06T20:23:42.530Z,11.03
2023-03-06T20:26:12.122Z,11.00
2023-03-06T20:28:41.414Z,11.00
2023-03-06T20:31:17.767Z,12.77
2023-03-06T20:33:47.051Z,13.20
2023-03-06T20:36:18.845Z,13.83
2023-03-06T20:38:47.669Z,14.35
2023-03-06T20:41:19.754Z,15.88
2023-03-06T20:43:47.310Z,17.63
2023-03-06T20:46:15.071Z,16.13
2023-03-06T20:48:43.089Z,16.70
2023-03-06T20:51:24.908Z,16.02
2023-03-06T20:53:56.013Z,16.00
2023-03-06T20:56:29.564Z,14.55
2023-03-06T20:58:57.495Z,6.07
2023-03-06T21:01:28.860Z,5.17
2023-03-06T21:03:56.978Z,5.10
2023-03-06T21:06:25.220Z,4.65
2023-03-06T21:08:52.650Z,4.57
2023-03-06T21:11:19.976Z,3.97
2023-03-06T21:13:47.246Z,3.70
2023-03-06T21:16:18.748Z,3.40
2023-03-06T21:18:46.595Z,4.13
2023-03-06T21:21:16.771Z,4.45
2023-03-06T21:23:45.522Z,5.10
2023-03-06T21:26:14.722Z,5.27
2023-03-06T21:28:42.470Z,6.53
2023-03-06T21:31:11.833Z,6.63
2023-03-06T21:33:39.366Z,5.60
2023-03-06T21:36:07.307Z,4.32
2023-03-06T21:38:34.967Z,6.70
2023-03-06T21:41:11.345Z,3.90
2023-03-06T21:43:38.822Z,3.75
2023-03-06T21:46:06.124Z,3.80
2023-03-06T21:48:33.815Z,4.55
2023-03-06T21:51:12.861Z,4.10
2023-03-06T21:53:42.860Z,4.20
2023-03-06T21:56:10.915Z,4.30
2023-03-06T21:58:38.229Z,3.17
2023-03-06T22:01:26.526Z,3.20
2023-03-06T22:03:54.706Z,3.30
2023-03-06T22:06:24.987Z,3.50
2023-03-06T22:08:52.700Z,3.83
2023-03-06T22:11:21.671Z,2.88
2023-03-06T22:13:49.302Z,3.90
2023-03-06T22:16:17.616Z,3.43
2023-03-06T22:18:46.286Z,4.15
2023-03-06T22:21:15.508Z,4.30
2023-03-06T22:23:43.415Z,4.15
2023-03-06T22:26:12.969Z,4.80
2023-03-06T22:28:40.822Z,4.80
2023-03-06T22:31:13.974Z,4.43
2023-03-06T22:33:41.657Z,4.57
2023-03-06T22:36:12.040Z,4.95
2023-03-06T22:38:41.577Z,5.32
2023-03-06T22:41:09.785Z,4.83
2023-03-06T22:43:37.518Z,4.75
2023-03-06T22:46:07.256Z,5.65
2023-03-06T22:48:35.189Z,6.05
2023-03-06T22:51:07.742Z,5.50
2023-03-06T22:53:35.351Z,6.17
2023-03-06T22:56:04.838Z,6.15
2023-03-06T22:58:37.239Z,6.45
2023-03-06T23:01:12.692Z,5.78
2023-03-06T23:03:42.314Z,6.88
2023-03-06T23:06:14.406Z,6.67
2023-03-06T23:08:42.941Z,7.25
2023-03-06T23:11:12.871Z,6.97
2023-03-06T23:13:58.942Z,7.03
2023-03-06T23:16:45.415Z,8.32
2023-03-06T23:19:31.363Z,7.47
2023-03-06T23:22:17.497Z,7.68
2023-03-06T23:25:03.620Z,6.30
2023-03-06T23:27:30.875Z,7.30
2023-03-06T23:29:59.110Z,7.13
2023-03-06T23:32:26.394Z,7.70
2023-03-06T23:34:53.731Z,7.05
2023-03-06T23:37:20.932Z,6.35
2023-03-06T23:39:48.113Z,6.35
2023-03-06T23:42:15.479Z,6.40
2023-03-06T23:44:42.699Z,6.17
2023-03-06T23:47:09.870Z,6.15
2023-03-06T23:49:37.006Z,6.88
2023-03-06T23:52:04.448Z,7.95
2023-03-06T23:54:33.094Z,7.10
2023-03-06T23:57:00.294Z,6.43
2023-03-06T23:59:27.454Z,7.05
